createdAt,value
2024-04-15T00:01:10.739Z,100.00
2024-04-15T00:03:57.767Z,100.00
2024-04-15T00:06:27.057Z,100.00
2024-04-15T00:08:55.992Z,100.00
2024-04-15T00:11:24.400Z,100.00
2024-04-15T00:13:53.207Z,100.00
2024-04-15T00:16:21.842Z,100.00
2024-04-15T00:18:51.149Z,100.00
2024-04-15T00:21:19.067Z,100.00
2024-04-15T00:23:48.368Z,100.00
2024-04-15T00:26:16.310Z,100.00
2024-04-15T00:28:45.458Z,100.00
2024-04-15T00:31:13.860Z,100.00
2024-04-15T00:33:44.257Z,100.00
2024-04-15T00:36:12.518Z,100.00
2024-04-15T00:38:41.356Z,100.00
2024-04-15T00:41:09.642Z,100.00
2024-04-15T00:43:47.268Z,100.00
2024-04-15T00:46:16.376Z,100.00
2024-04-15T00:48:46.248Z,100.00
2024-04-15T00:51:15.287Z,100.00
2024-04-15T00:53:46.176Z,100.00
2024-04-15T00:56:14.482Z,100.00
2024-04-15T00:58:44.505Z,100.00
2024-04-15T01:01:14.992Z,100.00
2024-04-15T01:03:45.526Z,100.00
2024-04-15T01:06:14.669Z,100.00
2024-04-15T01:08:43.379Z,100.00
2024-04-15T01:11:13.934Z,100.00
2024-04-15T01:13:42.747Z,100.00
2024-04-15T01:16:11.346Z,100.00
2024-04-15T01:18:40.254Z,100.00
2024-04-15T01:21:09.972Z,100.00
2024-04-15T01:23:50.448Z,100.00
2024-04-15T01:26:19.299Z,100.00
2024-04-15T01:28:48.395Z,100.00
2024-04-15T01:31:16.605Z,100.00
2024-04-15T01:33:45.476Z,100.00
2024-04-15T01:36:13.826Z,100.00
2024-04-15T01:38:43.007Z,100.00
2024-04-15T01:41:10.913Z,100.00
2024-04-15T01:43:39.713Z,100.00
2024-04-15T01:46:08.004Z,100.00
2024-04-15T01:48:36.948Z,100.00
2024-04-15T01:51:05.497Z,100.00
2024-04-15T01:53:34.514Z,100.00
2024-04-15T01:56:03.017Z,100.00
2024-04-15T01:58:31.732Z,100.00
2024-04-15T02:01:11.772Z,100.00
2024-04-15T02:03:41.552Z,100.00
2024-04-15T02:06:11.714Z,100.00
2024-04-15T02:08:41.049Z,100.00
2024-04-15T02:11:09.782Z,100.00
2024-04-15T02:13:38.726Z,100.00
2024-04-15T02:16:07.472Z,100.00
2024-04-15T02:18:36.381Z,100.00
2024-04-15T02:21:04.669Z,100.00
2024-04-15T02:23:33.945Z,100.00
2024-04-15T02:26:02.686Z,100.00
2024-04-15T02:28:31.237Z,100.00
2024-04-15T02:30:59.741Z,100.00
2024-04-15T02:33:28.987Z,100.00
2024-04-15T02:35:57.247Z,100.00
2024-04-15T02:38:25.886Z,100.00
2024-04-15T02:40:56.842Z,100.00
2024-04-15T02:43:25.955Z,100.00
2024-04-15T02:45:53.839Z,100.00
2024-04-15T02:48:22.629Z,100.00
2024-04-15T02:50:51.139Z,100.00
2024-04-15T02:53:19.972Z,100.00
2024-04-15T02:55:48.432Z,100.00
2024-04-15T02:58:17.137Z,100.00
2024-04-15T03:00:45.189Z,100.00
2024-04-15T03:03:14.532Z,100.00
2024-04-15T03:05:43.164Z,100.00
2024-04-15T03:08:12.161Z,100.00
2024-04-15T03:10:40.385Z,100.00
2024-04-15T03:13:09.300Z,100.00
2024-04-15T03:15:37.818Z,100.00
2024-04-15T03:18:06.589Z,100.00
2024-04-15T03:20:35.303Z,100.00
2024-04-15T03:23:04.768Z,100.00
2024-04-15T03:25:33.219Z,100.00
2024-04-15T03:28:01.781Z,100.00
2024-04-15T03:30:30.509Z,100.00
2024-04-15T03:32:59.322Z,100.00
2024-04-15T03:35:27.813Z,100.00
2024-04-15T03:37:56.549Z,100.00
2024-04-15T03:40:25.294Z,100.00
2024-04-15T03:42:54.780Z,100.00
2024-04-15T03:45:22.971Z,100.00
2024-04-15T03:47:52.028Z,100.00
2024-04-15T03:50:22.336Z,100.00
2024-04-15T03:52:56.124Z,100.00
2024-04-15T03:55:24.327Z,100.00
2024-04-15T03:57:54.717Z,100.00
2024-04-15T04:00:23.344Z,100.00
2024-04-15T04:02:53.786Z,100.00
2024-04-15T04:05:22.541Z,100.00
2024-04-15T04:07:51.387Z,100.00
2024-04-15T04:10:21.116Z,100.00
2024-04-15T04:12:50.451Z,100.00
2024-04-15T04:15:19.120Z,100.00
2024-04-15T04:17:48.080Z,100.00
2024-04-15T04:20:16.522Z,100.00
2024-04-15T04:22:45.564Z,100.00
2024-04-15T04:25:13.947Z,100.00
2024-04-15T04:27:43.222Z,100.00
2024-04-15T04:30:11.994Z,100.00
2024-04-15T04:32:41.883Z,100.00
2024-04-15T04:35:11.185Z,100.00
2024-04-15T04:37:42.859Z,100.00
2024-04-15T04:40:11.553Z,100.00
2024-04-15T04:42:44.401Z,100.00
2024-04-15T04:45:12.759Z,100.00
2024-04-15T04:47:41.377Z,100.00
2024-04-15T04:50:09.622Z,100.00
2024-04-15T04:52:38.502Z,100.00
2024-04-15T04:55:06.910Z,100.00
2024-04-15T04:57:36.288Z,100.00
2024-04-15T05:00:04.978Z,100.00
2024-04-15T05:02:34.111Z,100.00
2024-04-15T05:05:02.188Z,100.00
2024-04-15T05:07:31.022Z,100.00
2024-04-15T05:09:59.430Z,100.00
2024-04-15T05:12:28.766Z,100.00
2024-04-15T05:14:56.695Z,100.00
2024-04-15T05:17:25.608Z,100.00
2024-04-15T05:19:53.876Z,100.00
2024-04-15T05:22:22.665Z,100.00
2024-04-15T05:24:51.053Z,100.00
2024-04-15T05:27:19.754Z,100.00
2024-04-15T05:29:48.092Z,100.00
2024-04-15T05:32:17.172Z,100.00
2024-04-15T05:34:45.635Z,100.00
2024-04-15T05:37:14.932Z,100.00
2024-04-15T05:39:45.105Z,100.00
2024-04-15T05:42:15.333Z,100.00
2024-04-15T05:44:43.920Z,100.00
2024-04-15T05:47:12.795Z,100.00
2024-04-15T05:49:40.751Z,100.00
2024-04-15T05:52:09.471Z,100.00
2024-04-15T05:54:37.966Z,100.00
2024-04-15T05:57:06.661Z,100.00
2024-04-15T05:59:35.229Z,100.00
2024-04-15T06:02:03.917Z,100.00
2024-04-15T06:04:37.115Z,100.00
2024-04-15T06:07:05.487Z,100.00
2024-04-15T06:09:34.567Z,100.00
2024-04-15T06:12:02.703Z,100.00
2024-04-15T06:14:32.053Z,100.00
2024-04-15T06:17:02.658Z,100.00
2024-04-15T06:19:32.023Z,100.00
2024-04-15T06:22:02.548Z,100.00
2024-04-15T06:24:32.732Z,100.00
2024-04-15T06:27:01.263Z,100.00
2024-04-15T06:29:30.306Z,100.00
2024-04-15T06:31:58.680Z,100.00
2024-04-15T06:34:31.141Z,100.00
2024-04-15T06:37:00.573Z,100.00
2024-04-15T06:39:30.488Z,100.00
2024-04-15T06:41:59.040Z,100.00
2024-04-15T06:44:28.462Z,100.00
2024-04-15T06:46:57.373Z,100.00
2024-04-15T06:49:27.014Z,100.00
2024-04-15T06:51:56.350Z,100.00
2024-04-15T06:54:25.099Z,100.00
2024-04-15T06:56:53.122Z,100.00
2024-04-15T06:59:22.534Z,100.00
2024-04-15T07:01:51.334Z,100.00
2024-04-15T07:04:20.785Z,100.00
2024-04-15T07:06:49.634Z,100.00
2024-04-15T07:09:20.321Z,100.00
2024-04-15T07:11:48.868Z,100.00
2024-04-15T07:14:17.532Z,100.00
2024-04-15T07:16:46.052Z,100.00
2024-04-15T07:19:16.614Z,100.00
2024-04-15T07:21:45.017Z,100.00
2024-04-15T07:24:13.983Z,100.00
2024-04-15T07:26:43.107Z,100.00
2024-04-15T07:29:12.502Z,100.00
2024-04-15T07:31:41.743Z,100.00
2024-04-15T07:34:11.431Z,100.00
2024-04-15T07:36:40.290Z,100.00
2024-04-15T07:39:11.015Z,100.00
2024-04-15T07:41:39.726Z,100.00
2024-04-15T07:44:08.673Z,100.00
2024-04-15T07:46:36.956Z,100.00
2024-04-15T07:49:06.439Z,100.00
2024-04-15T07:51:35.391Z,100.00
2024-04-15T07:54:04.974Z,100.00
2024-04-15T07:56:33.467Z,100.00
2024-04-15T07:59:03.125Z,100.00
2024-04-15T08:01:32.031Z,100.00
2024-04-15T08:04:01.603Z,100.00
2024-04-15T08:06:30.150Z,100.00
2024-04-15T08:08:59.655Z,100.00
2024-04-15T08:11:28.601Z,100.00
2024-04-15T08:13:57.490Z,100.00
2024-04-15T08:16:25.859Z,100.00
2024-04-15T08:18:55.583Z,100.00
2024-04-15T08:21:23.982Z,100.00
2024-04-15T08:23:54.457Z,100.00
2024-04-15T08:26:24.013Z,100.00
2024-04-15T08:28:52.700Z,100.00
2024-04-15T08:31:21.548Z,100.00
2024-04-15T08:33:51.536Z,100.00
2024-04-15T08:36:20.346Z,100.00
2024-04-15T08:38:49.496Z,100.00
2024-04-15T08:41:28.440Z,100.00
2024-04-15T08:44:05.784Z,100.00
2024-04-15T08:46:40.111Z,100.00
2024-04-15T08:49:10.010Z,100.00
2024-04-15T08:51:38.563Z,100.00
2024-04-15T08:54:08.824Z,100.00
2024-04-15T08:56:39.337Z,100.00
2024-04-15T09:01:37.996Z,100.00
2024-04-15T09:04:08.917Z,100.00
2024-04-15T09:06:37.271Z,100.00
2024-04-15T09:09:06.577Z,100.00
2024-04-15T09:11:36.547Z,100.00
2024-04-15T09:14:05.883Z,100.00
2024-04-15T09:16:34.256Z,100.00
2024-04-15T09:19:08.537Z,100.00
2024-04-15T09:21:39.080Z,100.00
2024-04-15T09:24:12.256Z,100.00
2024-04-15T09:26:43.037Z,100.00
2024-04-15T09:29:13.222Z,100.00
2024-04-15T09:31:41.854Z,100.00
2024-04-15T09:34:11.557Z,100.00
2024-04-15T09:36:50.959Z,100.00
2024-04-15T09:39:21.960Z,100.00
2024-04-15T09:41:50.976Z,100.00
2024-04-15T09:44:22.185Z,100.00
2024-04-15T09:46:51.029Z,100.00
2024-04-15T09:49:22.910Z,100.00
2024-04-15T09:51:53.479Z,100.00
2024-04-15T09:54:25.694Z,100.00
2024-04-15T09:56:57.402Z,100.00
2024-04-15T09:59:27.943Z,100.00
2024-04-15T10:01:59.320Z,100.00
2024-04-15T10:04:33.180Z,100.00
2024-04-15T10:07:04.917Z,92.11
2024-04-15T10:09:33.814Z,100.00
2024-04-15T10:12:02.470Z,93.51
2024-04-15T10:14:31.832Z,93.64
2024-04-15T10:17:00.305Z,91.34
2024-04-15T10:19:34.293Z,88.47
2024-04-15T10:22:03.626Z,88.29
2024-04-15T10:24:33.249Z,92.82
2024-04-15T10:27:04.954Z,89.67
2024-04-15T10:29:39.635Z,86.04
2024-04-15T10:32:10.083Z,85.71
2024-04-15T10:34:45.898Z,85.13
2024-04-15T10:37:14.572Z,86.27
2024-04-15T10:39:47.906Z,78.27
2024-04-15T10:42:17.357Z,80.58
2024-04-15T10:44:46.227Z,83.50
2024-04-15T10:47:14.845Z,87.48
2024-04-15T10:49:43.696Z,81.49
2024-04-15T10:52:12.378Z,84.50
2024-04-15T10:54:42.669Z,84.28
2024-04-15T10:57:11.252Z,82.41
2024-04-15T10:59:42.530Z,81.45
2024-04-15T11:02:11.905Z,85.31
2024-04-15T11:04:41.519Z,81.28
2024-04-15T11:07:10.147Z,84.39
2024-04-15T11:09:39.494Z,83.66
2024-04-15T11:12:08.673Z,78.67
2024-04-15T11:14:38.332Z,79.56
2024-04-15T11:17:09.462Z,82.28
2024-04-15T11:19:39.057Z,80.27
2024-04-15T11:22:09.306Z,85.02
2024-04-15T11:24:39.127Z,77.61
2024-04-15T11:27:10.727Z,84.40
2024-04-15T11:29:51.680Z,79.45
2024-04-15T11:32:26.308Z,75.04
2024-04-15T11:34:56.604Z,83.55
2024-04-15T11:37:25.178Z,78.13
2024-04-15T11:39:55.225Z,70.99
2024-04-15T11:42:32.435Z,79.00
2024-04-15T11:45:07.182Z,66.55
2024-04-15T11:47:35.624Z,68.64
2024-04-15T11:50:05.354Z,75.50
2024-04-15T11:52:34.790Z,75.88
2024-04-15T11:55:04.701Z,64.86
2024-04-15T11:57:35.005Z,73.71
2024-04-15T12:00:03.906Z,68.24
2024-04-15T12:02:45.317Z,69.65
2024-04-15T12:05:15.052Z,69.96
2024-04-15T12:07:44.585Z,69.02
2024-04-15T12:10:14.465Z,73.56
2024-04-15T12:12:43.692Z,72.57
2024-04-15T12:15:13.534Z,70.55
2024-04-15T12:17:41.948Z,70.34
2024-04-15T12:20:11.173Z,74.00
2024-04-15T12:22:39.409Z,67.81
2024-04-15T12:25:10.037Z,70.96
2024-04-15T12:27:40.042Z,65.97
2024-04-15T12:30:12.939Z,61.32
2024-04-15T12:32:42.085Z,65.48
2024-04-15T12:35:12.387Z,67.00
2024-04-15T12:37:41.122Z,65.46
2024-04-15T12:40:10.097Z,65.84
2024-04-15T12:42:38.290Z,67.04
2024-04-15T12:45:07.700Z,66.98
2024-04-15T12:47:36.501Z,68.59
2024-04-15T12:50:06.145Z,70.17
2024-04-15T12:52:35.012Z,68.06
2024-04-15T12:55:04.469Z,67.39
2024-04-15T12:57:33.098Z,67.56
2024-04-15T13:00:02.003Z,69.42
2024-04-15T13:02:30.764Z,71.96
2024-04-15T13:05:00.644Z,71.62
2024-04-15T13:07:29.055Z,66.64
2024-04-15T13:09:58.844Z,66.25
2024-04-15T13:12:27.386Z,70.12
2024-04-15T13:14:56.422Z,67.73
2024-04-15T13:17:24.506Z,66.09
2024-04-15T13:19:53.778Z,67.58
2024-04-15T13:22:21.755Z,68.33
2024-04-15T13:24:50.725Z,66.78
2024-04-15T13:27:19.159Z,68.10
2024-04-15T13:29:47.791Z,70.05
2024-04-15T13:32:19.770Z,67.69
2024-04-15T13:34:50.007Z,68.94
2024-04-15T13:37:18.829Z,69.62
2024-04-15T13:39:47.762Z,67.07
2024-04-15T13:42:16.189Z,66.78
2024-04-15T13:44:45.368Z,68.27
2024-04-15T13:47:14.119Z,72.78
2024-04-15T13:49:43.011Z,68.89
2024-04-15T13:52:11.330Z,69.26
2024-04-15T13:54:40.308Z,66.63
2024-04-15T13:57:10.565Z,66.10
2024-04-15T13:59:41.014Z,67.32
2024-04-15T14:02:10.146Z,66.38
2024-04-15T14:04:39.412Z,71.67
2024-04-15T14:07:08.094Z,69.91
2024-04-15T14:09:37.148Z,71.68
2024-04-15T14:12:07.379Z,73.71
2024-04-15T14:14:36.907Z,73.19
2024-04-15T14:17:11.307Z,70.66
2024-04-15T14:19:41.075Z,69.46
2024-04-15T14:22:09.607Z,69.97
2024-04-15T14:24:42.083Z,77.17
2024-04-15T14:27:10.887Z,75.72
2024-04-15T14:29:40.610Z,80.71
2024-04-15T14:32:08.951Z,75.03
2024-04-15T14:34:37.609Z,72.91
2024-04-15T14:37:06.582Z,77.05
2024-04-15T14:39:35.601Z,76.12
2024-04-15T14:42:03.978Z,81.54
2024-04-15T14:44:32.668Z,73.48
2024-04-15T14:47:03.543Z,71.95
2024-04-15T14:49:32.734Z,71.41
2024-04-15T14:52:01.225Z,75.56
2024-04-15T14:54:30.151Z,75.95
2024-04-15T14:56:59.010Z,70.41
2024-04-15T14:59:29.002Z,72.33
2024-04-15T15:02:01.233Z,73.25
2024-04-15T15:04:30.757Z,72.06
2024-04-15T15:06:59.785Z,75.24
2024-04-15T15:09:29.077Z,73.31
2024-04-15T15:11:57.558Z,72.78
2024-04-15T15:14:26.530Z,72.81
2024-04-15T15:16:55.113Z,69.05
2024-04-15T15:19:24.171Z,74.08
2024-04-15T15:21:52.766Z,76.38
2024-04-15T15:24:21.959Z,77.23
2024-04-15T15:26:50.710Z,80.50
2024-04-15T15:29:20.151Z,81.41
2024-04-15T15:31:49.115Z,85.21
2024-04-15T15:34:18.356Z,89.23
2024-04-15T15:36:46.767Z,86.10
2024-04-15T15:39:15.698Z,91.55
2024-04-15T15:41:43.957Z,95.63
2024-04-15T15:44:12.982Z,95.35
2024-04-15T15:46:42.256Z,96.41
2024-04-15T15:49:11.435Z,99.34
2024-04-15T15:51:41.463Z,100.00
2024-04-15T15:54:10.325Z,100.00
2024-04-15T15:56:39.618Z,100.00
2024-04-15T15:59:09.238Z,100.00
2024-04-15T16:01:39.215Z,100.00
2024-04-15T16:04:08.503Z,100.00
2024-04-15T16:06:37.065Z,100.00
2024-04-15T16:09:06.439Z,100.00
2024-04-15T16:11:39.913Z,100.00
2024-04-15T16:14:15.112Z,100.00
2024-04-15T16:16:43.557Z,100.00
2024-04-15T16:19:13.755Z,100.00
2024-04-15T16:21:42.771Z,100.00
2024-04-15T16:24:11.658Z,100.00
2024-04-15T16:26:40.310Z,100.00
2024-04-15T16:29:10.261Z,100.00
2024-04-15T16:31:38.594Z,100.00
2024-04-15T16:34:08.232Z,100.00
2024-04-15T16:36:36.892Z,100.00
2024-04-15T16:39:06.280Z,100.00
2024-04-15T16:41:34.776Z,100.00
2024-04-15T16:44:03.805Z,100.00
2024-04-15T16:46:32.465Z,100.00
2024-04-15T16:49:01.832Z,100.00
2024-04-15T16:51:29.795Z,100.00
2024-04-15T16:53:58.404Z,100.00
2024-04-15T16:56:27.004Z,100.00
2024-04-15T16:58:56.119Z,100.00
2024-04-15T17:01:24.489Z,100.00
2024-04-15T17:03:53.327Z,100.00
2024-04-15T17:06:21.546Z,100.00
2024-04-15T17:08:50.355Z,100.00
2024-04-15T17:11:19.597Z,100.00
2024-04-15T17:13:48.789Z,100.00
2024-04-15T17:16:17.403Z,100.00
2024-04-15T17:18:46.227Z,100.00
2024-04-15T17:21:16.341Z,100.00
2024-04-15T17:23:45.435Z,100.00
2024-04-15T17:26:13.913Z,100.00
2024-04-15T17:28:42.664Z,100.00
2024-04-15T17:31:11.304Z,100.00
2024-04-15T17:33:40.543Z,100.00
2024-04-15T17:36:09.469Z,100.00
2024-04-15T17:38:38.329Z,100.00
2024-04-15T17:41:06.805Z,100.00
2024-04-15T17:43:35.824Z,100.00
2024-04-15T17:46:04.564Z,100.00
2024-04-15T17:48:34.246Z,100.00
2024-04-15T17:51:06.096Z,100.00
2024-04-15T17:53:35.224Z,100.00
2024-04-15T17:56:03.879Z,100.00
2024-04-15T17:58:32.606Z,100.00
2024-04-15T18:01:03.080Z,100.00
2024-04-15T18:03:32.703Z,100.00
2024-04-15T18:06:01.376Z,100.00
2024-04-15T18:08:30.178Z,100.00
2024-04-15T18:10:58.994Z,100.00
2024-04-15T18:13:28.540Z,100.00
2024-04-15T18:15:57.981Z,100.00
2024-04-15T18:18:29.738Z,100.00
2024-04-15T18:21:00.247Z,100.00
2024-04-15T18:23:29.044Z,100.00
2024-04-15T18:25:57.146Z,100.00
2024-04-15T18:28:26.669Z,100.00
2024-04-15T18:30:55.211Z,100.00
2024-04-15T18:33:23.883Z,100.00
2024-04-15T18:35:52.702Z,100.00
2024-04-15T18:38:21.932Z,100.00
2024-04-15T18:40:50.340Z,100.00
2024-04-15T18:43:19.284Z,100.00
2024-04-15T18:45:48.511Z,100.00
2024-04-15T18:48:17.550Z,100.00
2024-04-15T18:50:46.461Z,100.00
2024-04-15T18:53:15.968Z,100.00
2024-04-15T18:55:44.364Z,100.00
2024-04-15T18:58:13.127Z,100.00
2024-04-15T19:00:41.898Z,100.00
2024-04-15T19:03:11.776Z,100.00
2024-04-15T19:05:40.604Z,100.00
2024-04-15T19:08:12.476Z,100.00
2024-04-15T19:10:41.991Z,100.00
2024-04-15T19:13:12.185Z,100.00
2024-04-15T19:15:40.423Z,100.00
2024-04-15T19:18:09.903Z,100.00
2024-04-15T19:20:38.503Z,100.00
2024-04-15T19:23:07.660Z,100.00
2024-04-15T19:25:35.973Z,100.00
2024-04-15T19:28:05.578Z,100.00
2024-04-15T19:30:38.052Z,100.00
2024-04-15T19:33:10.807Z,100.00
2024-04-15T19:35:48.313Z,100.00
2024-04-15T19:38:20.579Z,100.00
2024-04-15T19:40:49.106Z,100.00
2024-04-15T19:43:17.650Z,100.00
2024-04-15T19:45:46.520Z,100.00
2024-04-15T19:48:15.644Z,100.00
2024-04-15T19:50:44.826Z,100.00
2024-04-15T19:53:14.089Z,100.00
2024-04-15T19:55:43.347Z,100.00
2024-04-15T19:58:13.402Z,100.00
2024-04-15T20:00:41.787Z,100.00
2024-04-15T20:03:13.378Z,100.00
2024-04-15T20:05:42.750Z,100.00
2024-04-15T20:08:20.595Z,100.00
2024-04-15T20:10:51.145Z,100.00
2024-04-15T20:13:20.739Z,100.00
2024-04-15T20:15:52.045Z,100.00
2024-04-15T20:18:43.708Z,100.00
2024-04-15T20:21:12.051Z,100.00
2024-04-15T20:23:41.027Z,100.00
2024-04-15T20:26:10.033Z,100.00
2024-04-15T20:28:44.421Z,100.00
2024-04-15T20:31:12.935Z,100.00
2024-04-15T20:33:41.751Z,100.00
2024-04-15T20:36:11.486Z,100.00
2024-04-15T20:38:42.903Z,100.00
2024-04-15T20:41:11.693Z,100.00
2024-04-15T20:43:40.665Z,100.00
2024-04-15T20:46:09.785Z,100.00
2024-04-15T20:48:38.892Z,100.00
2024-04-15T20:51:07.257Z,100.00
2024-04-15T20:53:36.551Z,100.00
2024-04-15T20:56:05.266Z,100.00
2024-04-15T20:58:34.033Z,100.00
2024-04-15T21:01:04.812Z,100.00
2024-04-15T21:03:34.481Z,100.00
2024-04-15T21:06:03.126Z,100.00
2024-04-15T21:08:32.272Z,100.00
2024-04-15T21:11:00.736Z,100.00
2024-04-15T21:13:29.833Z,100.00
2024-04-15T21:15:58.354Z,100.00
2024-04-15T21:18:27.072Z,100.00
2024-04-15T21:20:55.673Z,100.00
2024-04-15T21:23:24.352Z,100.00
2024-04-15T21:25:53.007Z,100.00
2024-04-15T21:28:22.080Z,100.00
2024-04-15T21:30:50.727Z,100.00
2024-04-15T21:33:21.137Z,100.00
2024-04-15T21:35:49.346Z,100.00
2024-04-15T21:38:18.231Z,100.00
2024-04-15T21:40:46.032Z,100.00
2024-04-15T21:43:16.823Z,100.00
2024-04-15T21:45:46.801Z,100.00
2024-04-15T21:48:15.943Z,100.00
2024-04-15T21:50:43.950Z,100.00
2024-04-15T21:53:13.856Z,100.00
2024-04-15T21:55:42.066Z,100.00
2024-04-15T21:58:10.716Z,100.00
2024-04-15T22:00:39.407Z,100.00
2024-04-15T22:03:09.122Z,100.00
2024-04-15T22:05:38.392Z,100.00
2024-04-15T22:08:07.355Z,100.00
2024-04-15T22:10:36.422Z,100.00
2024-04-15T22:13:05.546Z,100.00
2024-04-15T22:15:34.093Z,100.00
2024-04-15T22:18:03.160Z,100.00
2024-04-15T22:20:31.522Z,100.00
2024-04-15T22:23:01.197Z,100.00
2024-04-15T22:25:30.416Z,100.00
2024-04-15T22:28:00.669Z,100.00
2024-04-15T22:30:28.937Z,100.00
2024-04-15T22:32:58.458Z,100.00
2024-04-15T22:35:26.730Z,100.00
2024-04-15T22:37:55.429Z,100.00
2024-04-15T22:40:23.865Z,100.00
2024-04-15T22:42:52.924Z,100.00
2024-04-15T22:45:21.218Z,100.00
2024-04-15T22:47:49.763Z,100.00
2024-04-15T22:50:18.530Z,100.00
2024-04-15T22:52:47.490Z,100.00
2024-04-15T22:55:15.840Z,100.00
2024-04-15T22:57:44.440Z,100.00
2024-04-15T23:00:13.234Z,100.00
2024-04-15T23:02:42.002Z,100.00
2024-04-15T23:05:10.508Z,100.00
2024-04-15T23:07:41.179Z,100.00
2024-04-15T23:10:09.740Z,100.00
2024-04-15T23:12:38.559Z,100.00
2024-04-15T23:15:07.214Z,100.00
2024-04-15T23:17:36.640Z,100.00
2024-04-15T23:20:05.506Z,100.00
2024-04-15T23:22:34.906Z,100.00
2024-04-15T23:25:04.070Z,100.00
2024-04-15T23:27:32.736Z,100.00
2024-04-15T23:30:01.081Z,100.00
2024-04-15T23:32:30.119Z,100.00
2024-04-15T23:34:58.559Z,100.00
2024-04-15T23:37:27.180Z,100.00
2024-04-15T23:39:55.396Z,100.00
2024-04-15T23:42:24.648Z,100.00
2024-04-15T23:45:11.948Z,100.00
2024-04-15T23:47:59.337Z,100.00
2024-04-15T23:50:46.493Z,100.00
2024-04-15T23:53:33.837Z,100.00
2024-04-15T23:56:21.035Z,100.00
2024-04-15T23:58:49.848Z,100.00
